Time;durP1;ratioP1;P1;durP2;ratioP2;P2;SDS_P1;SDS_P2;PMS_P1;PMS_P2;Temp;Humidity;BMP_temperature;BMP_pressure;BME280_temperature;BME280_humidity;BME280_pressure;Samples;Min_cycle;Max_cycle;Signal;HPM_P1;HPM_P2
2024/04/07 00:00:48;;;;;;;5.50;5.10;;;;;;;;;;4882531;29;20774;-87
2024/04/07 00:03:14;;;;;;;5.83;5.43;;;;;;;;;;4901779;29;20508;-85
2024/04/07 00:05:41;;;;;;;5.40;5.10;;;;;;;;;;4902112;29;20814;-85
2024/04/07 00:08:07;;;;;;;5.57;5.10;;;;;;;;;;4887671;29;20390;-86
2024/04/07 00:10:35;;;;;;;5.90;5.50;;;;;;;;;;4884555;29;20995;-86
2024/04/07 00:13:01;;;;;;;6.07;5.47;;;;;;;;;;4899711;29;20834;-86
2024/04/07 00:15:27;;;;;;;5.23;4.83;;;;;;;;;;4882317;29;20466;-85
2024/04/07 00:17:53;;;;;;;5.60;5.13;;;;;;;;;;4901966;29;20422;-85
2024/04/07 00:20:19;;;;;;;7.80;6.17;;;;;;;;;;4903754;29;20460;-86
2024/04/07 00:22:45;;;;;;;5.80;5.30;;;;;;;;;;4902655;29;20810;-85
2024/04/07 00:25:12;;;;;;;8.80;5.87;;;;;;;;;;4897263;29;20453;-86
2024/04/07 00:27:38;;;;;;;5.37;4.97;;;;;;;;;;4897276;29;20402;-86
2024/04/07 00:30:04;;;;;;;8.23;4.97;;;;;;;;;;4883189;29;20664;-86
2024/04/07 00:32:30;;;;;;;5.33;4.83;;;;;;;;;;4895455;29;20440;-86
2024/04/07 00:34:57;;;;;;;5.80;5.30;;;;;;;;;;4900182;29;20425;-86
2024/04/07 00:37:25;;;;;;;6.30;5.60;;;;;;;;;;4881615;29;20397;-86
2024/04/07 00:39:52;;;;;;;6.53;5.40;;;;;;;;;;4900608;29;20397;-85
2024/04/07 00:42:18;;;;;;;5.60;5.10;;;;;;;;;;4893971;29;20387;-86
2024/04/07 00:44:45;;;;;;;5.47;5.07;;;;;;;;;;4874891;29;20435;-87
2024/04/07 00:47:11;;;;;;;6.40;5.63;;;;;;;;;;4881953;29;20474;-87
2024/04/07 00:49:37;;;;;;;5.10;4.70;;;;;;;;;;4882102;29;20925;-86
2024/04/07 00:52:04;;;;;;;6.90;5.13;;;;;;;;;;4884912;29;20458;-85
2024/04/07 00:54:30;;;;;;;5.30;5.00;;;;;;;;;;4887310;29;20382;-85
2024/04/07 00:56:57;;;;;;;7.07;5.20;;;;;;;;;;4897153;29;20893;-87
2024/04/07 00:59:23;;;;;;;8.50;5.63;;;;;;;;;;4906599;29;20479;-86
2024/04/07 01:01:49;;;;;;;5.53;5.20;;;;;;;;;;4898329;29;20398;-88
2024/04/07 01:04:15;;;;;;;7.90;5.43;;;;;;;;;;4897461;29;20448;-85
2024/04/07 01:06:41;;;;;;;5.43;4.97;;;;;;;;;;4897582;29;20892;-85
2024/04/07 01:09:08;;;;;;;6.00;5.43;;;;;;;;;;4879690;29;20406;-87
2024/04/07 01:11:34;;;;;;;5.77;5.23;;;;;;;;;;4892075;29;20803;-85
2024/04/07 01:14:00;;;;;;;8.37;5.43;;;;;;;;;;4896333;29;20446;-85
2024/04/07 01:16:26;;;;;;;6.10;5.60;;;;;;;;;;4897218;29;20386;-86
2024/04/07 01:18:52;;;;;;;6.77;5.20;;;;;;;;;;4896156;29;20415;-86
2024/04/07 01:21:18;;;;;;;6.47;5.60;;;;;;;;;;4903749;29;20398;-85
2024/04/07 01:23:44;;;;;;;8.17;5.43;;;;;;;;;;4896430;29;20408;-85
2024/04/07 01:26:10;;;;;;;6.00;5.60;;;;;;;;;;4897532;29;20848;-86
2024/04/07 01:28:36;;;;;;;5.83;5.40;;;;;;;;;;4897716;29;20420;-86
2024/04/07 01:31:02;;;;;;;5.40;5.10;;;;;;;;;;4900720;29;20422;-86
2024/04/07 01:33:28;;;;;;;5.70;5.20;;;;;;;;;;4896143;29;20772;-86
2024/04/07 01:35:54;;;;;;;9.03;5.03;;;;;;;;;;4895181;29;20415;-86
2024/04/07 01:38:20;;;;;;;7.77;5.70;;;;;;;;;;4874953;29;20488;-85
2024/04/07 01:40:47;;;;;;;6.07;5.47;;;;;;;;;;4895727;29;20419;-87
2024/04/07 01:43:13;;;;;;;5.87;5.17;;;;;;;;;;4897991;29;20415;-85
2024/04/07 01:45:39;;;;;;;6.03;5.63;;;;;;;;;;4897441;29;20610;-85
2024/04/07 01:48:05;;;;;;;5.77;5.37;;;;;;;;;;4888961;29;20447;-86
2024/04/07 01:50:31;;;;;;;6.13;5.53;;;;;;;;;;4893228;29;20423;-86
2024/04/07 01:52:57;;;;;;;6.00;5.60;;;;;;;;;;4909188;29;20828;-85
2024/04/07 01:55:23;;;;;;;6.50;6.00;;;;;;;;;;4892478;29;20451;-88
2024/04/07 01:57:49;;;;;;;6.33;5.23;;;;;;;;;;4899662;29;20437;-87
2024/04/07 02:00:15;;;;;;;6.77;5.50;;;;;;;;;;4883912;29;20428;-86
2024/04/07 02:02:41;;;;;;;9.23;5.00;;;;;;;;;;4902058;29;20766;-87
2024/04/07 02:05:09;;;;;;;7.73;5.47;;;;;;;;;;4888814;29;20483;-86
2024/04/07 02:07:35;;;;;;;9.50;5.60;;;;;;;;;;4881699;29;20386;-86
2024/04/07 02:10:02;;;;;;;7.17;5.80;;;;;;;;;;4895311;29;20390;-86
2024/04/07 02:12:28;;;;;;;6.10;5.60;;;;;;;;;;4900651;29;20420;-86
2024/04/07 02:14:54;;;;;;;7.30;6.67;;;;;;;;;;4901505;29;20749;-86
2024/04/07 02:17:20;;;;;;;7.33;5.80;;;;;;;;;;4884169;29;20385;-86
2024/04/07 02:19:51;;;;;;;11.57;5.70;;;;;;;;;;4895455;29;20876;-86
2024/04/07 02:22:18;;;;;;;7.47;6.10;;;;;;;;;;4901373;29;20554;-87
2024/04/07 02:24:44;;;;;;;8.00;6.27;;;;;;;;;;4880390;29;20466;-87
2024/04/07 02:27:10;;;;;;;10.73;5.63;;;;;;;;;;4900673;29;20489;-87
2024/04/07 02:29:36;;;;;;;11.70;6.07;;;;;;;;;;4880685;29;20585;-86
2024/04/07 02:32:02;;;;;;;6.20;5.60;;;;;;;;;;4898561;29;20410;-87
2024/04/07 02:34:28;;;;;;;6.53;5.97;;;;;;;;;;4884386;29;20417;-86
2024/04/07 02:36:54;;;;;;;6.13;5.40;;;;;;;;;;4899444;29;20445;-86
2024/04/07 02:39:21;;;;;;;7.50;5.80;;;;;;;;;;4906385;29;20714;-87
2024/04/07 02:41:47;;;;;;;7.33;5.80;;;;;;;;;;4906579;29;20409;-87
2024/04/07 02:44:15;;;;;;;6.40;5.77;;;;;;;;;;4881212;29;20421;-86
2024/04/07 02:49:26;;;;;;;6.30;5.70;;;;;;;;;;4887063;29;20454;-87
2024/04/07 02:51:52;;;;;;;6.83;5.90;;;;;;;;;;4890224;29;20505;-86
2024/04/07 02:54:18;;;;;;;6.27;5.70;;;;;;;;;;4890922;29;20484;-86
2024/04/07 02:56:44;;;;;;;7.73;6.17;;;;;;;;;;4898869;29;20406;-86
2024/04/07 02:59:10;;;;;;;12.50;6.30;;;;;;;;;;4880363;29;20398;-87
2024/04/07 03:01:37;;;;;;;7.23;6.63;;;;;;;;;;4864832;29;20778;-86
2024/04/07 03:04:03;;;;;;;7.07;6.57;;;;;;;;;;4900325;29;20474;-86
2024/04/07 03:06:29;;;;;;;10.73;6.47;;;;;;;;;;4897613;29;20481;-87
2024/04/07 03:08:57;;;;;;;10.43;7.00;;;;;;;;;;4899498;29;20435;-87
2024/04/07 03:11:23;;;;;;;6.83;6.23;;;;;;;;;;4883383;29;20416;-86
2024/04/07 03:13:49;;;;;;;6.27;5.73;;;;;;;;;;4880050;29;20773;-86
2024/04/07 03:16:15;;;;;;;6.43;5.83;;;;;;;;;;4903353;29;20402;-86
2024/04/07 03:18:41;;;;;;;6.70;5.80;;;;;;;;;;4899893;29;20486;-87
2024/04/07 03:21:09;;;;;;;6.97;6.20;;;;;;;;;;4881204;29;20488;-88
2024/04/07 03:23:35;;;;;;;6.83;6.30;;;;;;;;;;4878224;29;20805;-87
2024/04/07 03:26:01;;;;;;;6.40;5.90;;;;;;;;;;4880646;29;20531;-87
2024/04/07 03:28:27;;;;;;;8.03;6.87;;;;;;;;;;4865820;29;20394;-88
2024/04/07 03:30:53;;;;;;;8.57;6.40;;;;;;;;;;4850058;29;1067806;-86
2024/04/07 03:33:19;;;;;;;9.87;6.50;;;;;;;;;;4900877;29;20183;-86
2024/04/07 03:35:45;;;;;;;6.80;6.27;;;;;;;;;;4883289;29;20402;-87
2024/04/07 03:38:11;;;;;;;7.30;6.30;;;;;;;;;;4901796;29;20419;-86
2024/04/07 03:40:38;;;;;;;7.23;6.27;;;;;;;;;;4884209;29;20914;-86
2024/04/07 03:43:04;;;;;;;13.27;6.43;;;;;;;;;;4881984;29;20743;-86
2024/04/07 03:45:30;;;;;;;8.20;7.07;;;;;;;;;;4897291;29;20467;-86
2024/04/07 03:47:56;;;;;;;7.47;6.77;;;;;;;;;;4885209;29;20511;-88
2024/04/07 03:50:22;;;;;;;7.47;6.77;;;;;;;;;;4878569;29;20424;-87
2024/04/07 03:52:48;;;;;;;7.10;6.33;;;;;;;;;;4894272;29;20726;-85
2024/04/07 03:55:14;;;;;;;6.03;5.57;;;;;;;;;;4877045;29;20427;-86
2024/04/07 03:57:40;;;;;;;6.30;5.80;;;;;;;;;;4884907;29;20394;-88
2024/04/07 04:00:07;;;;;;;7.30;6.10;;;;;;;;;;4877878;29;20447;-87
2024/04/07 04:02:33;;;;;;;7.87;5.90;;;;;;;;;;4889534;29;20755;-87
2024/04/07 04:05:00;;;;;;;7.53;5.90;;;;;;;;;;4896619;29;20420;-87
2024/04/07 04:07:27;;;;;;;7.37;6.37;;;;;;;;;;4900852;29;20402;-87
2024/04/07 04:09:54;;;;;;;7.20;6.10;;;;;;;;;;4898715;29;20437;-88
2024/04/07 04:12:20;;;;;;;7.33;6.70;;;;;;;;;;4903629;29;20386;-88
2024/04/07 04:14:46;;;;;;;8.90;7.00;;;;;;;;;;4912181;29;20701;-87
2024/04/07 04:17:12;;;;;;;7.17;6.60;;;;;;;;;;4880691;29;20495;-88
2024/04/07 04:19:38;;;;;;;7.63;6.97;;;;;;;;;;4890656;29;20478;-88
2024/04/07 04:22:05;;;;;;;6.50;6.00;;;;;;;;;;4883225;29;20932;-87
2024/04/07 04:24:32;;;;;;;7.50;6.80;;;;;;;;;;4882043;29;20409;-87
2024/04/07 04:26:58;;;;;;;8.30;6.30;;;;;;;;;;4904389;29;20452;-89
2024/04/07 04:29:24;;;;;;;8.53;6.93;;;;;;;;;;4897320;29;20787;-88
2024/04/07 04:31:50;;;;;;;7.23;6.53;;;;;;;;;;4900939;29;20407;-87
2024/04/07 04:34:16;;;;;;;10.57;6.70;;;;;;;;;;4895005;29;20415;-87
2024/04/07 04:36:42;;;;;;;7.17;6.47;;;;;;;;;;4882589;29;20492;-88
2024/04/07 04:39:08;;;;;;;11.40;6.50;;;;;;;;;;4866678;29;20977;-88
2024/04/07 04:41:34;;;;;;;7.00;6.57;;;;;;;;;;4883631;29;20416;-88
2024/04/07 04:44:00;;;;;;;8.13;6.40;;;;;;;;;;4895988;29;20419;-88
2024/04/07 04:46:26;;;;;;;7.40;6.77;;;;;;;;;;4879816;29;20498;-89
2024/04/07 04:48:52;;;;;;;9.73;6.67;;;;;;;;;;4893126;29;20415;-88
2024/04/07 04:51:18;;;;;;;7.47;6.60;;;;;;;;;;4888677;29;20420;-88
2024/04/07 04:53:44;;;;;;;7.07;6.33;;;;;;;;;;4898769;29;20417;-88
2024/04/07 04:56:10;;;;;;;7.10;6.40;;;;;;;;;;4899018;29;20397;-88
2024/04/07 04:58:36;;;;;;;7.87;6.10;;;;;;;;;;4880597;29;20524;-88
2024/04/07 05:01:12;;;;;;;7.70;6.37;;;;;;;;;;4897949;29;20397;-88
2024/04/07 05:03:38;;;;;;;11.53;7.00;;;;;;;;;;4882176;29;20432;-88
2024/04/07 05:06:07;;;;;;;9.50;6.93;;;;;;;;;;4901114;29;20475;-88
2024/04/07 05:08:33;;;;;;;7.00;6.30;;;;;;;;;;4886495;29;20434;-88
2024/04/07 05:11:03;;;;;;;9.90;6.77;;;;;;;;;;4898990;29;20414;-91
2024/04/07 05:13:30;;;;;;;6.67;6.07;;;;;;;;;;4898981;29;20779;-88
2024/04/07 05:15:56;;;;;;;11.50;6.20;;;;;;;;;;4888039;29;20431;-88
2024/04/07 05:18:22;;;;;;;13.90;6.63;;;;;;;;;;4877828;29;20427;-88
2024/04/07 05:20:48;;;;;;;7.17;6.57;;;;;;;;;;4903188;29;20386;-88
2024/04/07 05:23:14;;;;;;;7.03;6.17;;;;;;;;;;4901283;29;20940;-88
2024/04/07 05:25:40;;;;;;;6.43;5.83;;;;;;;;;;4898899;29;20774;-88
2024/04/07 05:28:06;;;;;;;6.50;5.90;;;;;;;;;;4892631;29;20444;-88
2024/04/07 05:30:32;;;;;;;5.83;5.33;;;;;;;;;;4893791;29;20533;-88
2024/04/07 05:32:58;;;;;;;5.90;5.40;;;;;;;;;;4874537;29;20435;-88
2024/04/07 05:35:24;;;;;;;6.90;5.70;;;;;;;;;;4879355;29;20560;-88
2024/04/07 05:37:51;;;;;;;16.80;6.00;;;;;;;;;;4867716;29;20420;-88
2024/04/07 05:40:17;;;;;;;8.53;5.90;;;;;;;;;;4890655;29;20482;-87
2024/04/07 05:42:42;;;;;;;6.30;5.70;;;;;;;;;;4893914;29;20851;-87
2024/04/07 05:45:08;;;;;;;5.60;5.20;;;;;;;;;;4879477;29;20463;-87
2024/04/07 05:47:34;;;;;;;5.73;5.00;;;;;;;;;;4889841;29;20472;-87
2024/04/07 05:50:00;;;;;;;5.20;4.90;;;;;;;;;;4893491;29;20822;-88
2024/04/07 05:52:26;;;;;;;6.13;5.73;;;;;;;;;;4884190;29;20773;-89
2024/04/07 05:54:52;;;;;;;5.37;4.97;;;;;;;;;;4900907;29;20427;-88
2024/04/07 05:57:18;;;;;;;5.53;5.07;;;;;;;;;;4881378;29;20431;-88
2024/04/07 05:59:47;;;;;;;5.50;5.00;;;;;;;;;;4897707;29;20402;-88
2024/04/07 06:02:12;;;;;;;5.40;4.90;;;;;;;;;;4898185;29;20420;-88
2024/04/07 06:04:39;;;;;;;5.50;5.20;;;;;;;;;;4892267;29;20566;-88
2024/04/07 06:07:05;;;;;;;5.87;5.47;;;;;;;;;;4894553;29;20483;-88
2024/04/07 06:09:31;;;;;;;6.03;5.67;;;;;;;;;;4905233;29;20426;-87
2024/04/07 06:11:57;;;;;;;6.23;5.93;;;;;;;;;;4878897;29;21185;-88
2024/04/07 06:14:23;;;;;;;6.03;5.63;;;;;;;;;;4899150;29;20456;-88
2024/04/07 06:16:49;;;;;;;6.50;6.00;;;;;;;;;;4883306;29;20403;-88
2024/04/07 06:19:16;;;;;;;6.83;6.23;;;;;;;;;;4902804;29;20390;-87
2024/04/07 06:21:42;;;;;;;6.77;6.27;;;;;;;;;;4907180;29;20498;-87
2024/04/07 06:24:08;;;;;;;6.33;5.87;;;;;;;;;;4871348;29;20453;-88
2024/04/07 06:26:34;;;;;;;6.50;5.97;;;;;;;;;;4875559;29;20860;-87
2024/04/07 06:29:00;;;;;;;6.30;5.80;;;;;;;;;;4886541;29;20471;-88
2024/04/07 06:31:26;;;;;;;6.70;6.20;;;;;;;;;;4879041;29;20415;-88
2024/04/07 06:33:52;;;;;;;7.00;6.40;;;;;;;;;;4895422;29;20952;-88
2024/04/07 06:36:18;;;;;;;7.00;6.50;;;;;;;;;;4860868;29;20425;-86
2024/04/07 06:38:44;;;;;;;6.50;6.20;;;;;;;;;;4890232;29;20393;-87
2024/04/07 06:41:10;;;;;;;6.90;6.30;;;;;;;;;;4896913;29;20415;-88
2024/04/07 06:43:36;;;;;;;6.63;6.30;;;;;;;;;;4874884;29;20410;-87
2024/04/07 06:46:02;;;;;;;6.83;6.33;;;;;;;;;;4890192;29;20553;-87
2024/04/07 06:48:28;;;;;;;6.00;5.60;;;;;;;;;;4919471;29;20389;-87
2024/04/07 06:50:54;;;;;;;5.00;4.70;;;;;;;;;;4900501;29;20911;-88
2024/04/07 06:53:21;;;;;;;6.30;5.83;;;;;;;;;;4885436;29;20402;-87
2024/04/07 06:55:46;;;;;;;5.83;5.40;;;;;;;;;;4881453;29;20390;-87
2024/04/07 06:58:12;;;;;;;6.30;5.60;;;;;;;;;;4883312;29;20394;-87
2024/04/07 07:00:40;;;;;;;6.70;6.20;;;;;;;;;;4874398;29;20498;-87
2024/04/07 07:03:06;;;;;;;6.60;6.20;;;;;;;;;;4899693;29;20405;-91
2024/04/07 07:05:32;;;;;;;7.57;6.97;;;;;;;;;;4903097;29;20452;-88
2024/04/07 07:07:59;;;;;;;8.20;6.80;;;;;;;;;;4899955;29;20505;-89
2024/04/07 07:10:25;;;;;;;7.83;6.70;;;;;;;;;;4902260;29;20392;-87
2024/04/07 07:12:51;;;;;;;7.70;6.97;;;;;;;;;;4900220;29;20812;-87
2024/04/07 07:15:17;;;;;;;7.33;6.60;;;;;;;;;;4899738;29;20411;-88
2024/04/07 07:17:42;;;;;;;7.30;6.70;;;;;;;;;;4871303;29;20398;-87
2024/04/07 07:20:09;;;;;;;7.77;6.83;;;;;;;;;;4882147;29;20398;-88
2024/04/07 07:22:36;;;;;;;7.23;6.60;;;;;;;;;;4870902;29;20434;-84
2024/04/07 07:25:02;;;;;;;7.43;6.90;;;;;;;;;;4880751;29;20385;-88
2024/04/07 07:27:30;;;;;;;6.73;6.37;;;;;;;;;;4899158;29;20423;-84
2024/04/07 07:29:56;;;;;;;6.43;5.93;;;;;;;;;;4883553;29;20486;-85
2024/04/07 07:32:22;;;;;;;7.70;7.13;;;;;;;;;;4900161;29;20916;-85
2024/04/07 07:34:48;;;;;;;9.63;7.77;;;;;;;;;;4900310;29;20776;-88
2024/04/07 07:37:14;;;;;;;7.57;6.80;;;;;;;;;;4903329;29;20394;-86
2024/04/07 07:39:40;;;;;;;7.53;6.80;;;;;;;;;;4897669;29;20401;-83
2024/04/07 07:42:06;;;;;;;6.90;6.40;;;;;;;;;;4892774;29;20393;-85
2024/04/07 07:44:32;;;;;;;6.57;6.20;;;;;;;;;;4897873;29;20429;-86
2024/04/07 07:46:58;;;;;;;7.10;6.50;;;;;;;;;;4879588;29;20458;-86
2024/04/07 07:49:24;;;;;;;7.13;6.73;;;;;;;;;;4874181;29;20397;-85
2024/04/07 07:51:50;;;;;;;6.77;6.23;;;;;;;;;;4887036;29;20500;-85
2024/04/07 07:54:16;;;;;;;8.23;7.07;;;;;;;;;;4898839;29;20434;-85
2024/04/07 07:56:42;;;;;;;7.80;7.00;;;;;;;;;;4902314;29;20427;-85
2024/04/07 07:59:07;;;;;;;7.60;6.63;;;;;;;;;;4898676;29;20904;-86
2024/04/07 08:01:33;;;;;;;7.27;6.50;;;;;;;;;;4909339;29;20773;-86
2024/04/07 08:03:59;;;;;;;8.10;6.93;;;;;;;;;;4916827;29;20430;-86
2024/04/07 08:06:25;;;;;;;7.47;6.80;;;;;;;;;;4889781;29;20511;-85
2024/04/07 08:08:51;;;;;;;7.63;6.83;;;;;;;;;;4879591;29;20744;-85
2024/04/07 08:11:17;;;;;;;6.07;5.43;;;;;;;;;;4894349;29;20402;-85
2024/04/07 08:13:43;;;;;;;5.97;5.40;;;;;;;;;;4885122;29;20394;-85
2024/04/07 08:16:09;;;;;;;5.77;5.20;;;;;;;;;;4880647;29;20398;-85
2024/04/07 08:18:36;;;;;;;6.03;5.37;;;;;;;;;;4891290;29;20479;-85
2024/04/07 08:21:02;;;;;;;6.03;5.60;;;;;;;;;;4898678;29;20404;-86
2024/04/07 08:23:28;;;;;;;11.23;5.90;;;;;;;;;;4904404;29;20598;-88
2024/04/07 08:25:56;;;;;;;5.77;5.27;;;;;;;;;;4887165;29;20445;-86
2024/04/07 08:28:22;;;;;;;6.30;5.70;;;;;;;;;;4907318;29;20447;-88
2024/04/07 08:30:48;;;;;;;8.50;5.40;;;;;;;;;;4894505;29;20854;-87
2024/04/07 08:33:14;;;;;;;5.93;5.40;;;;;;;;;;4892740;29;20438;-88
2024/04/07 08:35:40;;;;;;;5.20;4.90;;;;;;;;;;4884283;29;20784;-87
2024/04/07 08:38:06;;;;;;;5.00;4.60;;;;;;;;;;4885738;29;20482;-88
2024/04/07 08:40:32;;;;;;;4.77;4.37;;;;;;;;;;4897338;29;20430;-87
2024/04/07 08:42:58;;;;;;;8.17;5.17;;;;;;;;;;4880760;29;20760;-87
2024/04/07 08:45:25;;;;;;;5.50;4.67;;;;;;;;;;4893572;29;20964;-88
2024/04/07 08:47:51;;;;;;;6.00;4.97;;;;;;;;;;4889506;29;20762;-90
2024/04/07 08:50:17;;;;;;;5.70;4.60;;;;;;;;;;4898681;29;20560;-88
2024/04/07 08:52:44;;;;;;;6.40;6.00;;;;;;;;;;4900317;29;20414;-84
2024/04/07 08:55:10;;;;;;;5.20;4.80;;;;;;;;;;4892366;29;20424;-85
2024/04/07 08:57:37;;;;;;;6.20;5.70;;;;;;;;;;4895936;29;20471;-86
2024/04/07 09:00:06;;;;;;;6.37;4.30;;;;;;;;;;4858821;29;20459;-86
2024/04/07 09:02:32;;;;;;;4.60;4.20;;;;;;;;;;4897371;29;20793;-86
2024/04/07 09:04:59;;;;;;;5.17;4.80;;;;;;;;;;4901404;29;20427;-84
2024/04/07 09:07:25;;;;;;;4.90;4.60;;;;;;;;;;4895978;29;20416;-87
2024/04/07 09:09:51;;;;;;;4.60;4.30;;;;;;;;;;4889110;29;20410;-86
2024/04/07 09:12:17;;;;;;;5.13;4.80;;;;;;;;;;4900341;29;20415;-86
2024/04/07 09:14:47;;;;;;;5.50;5.20;;;;;;;;;;4891476;29;20419;-86
2024/04/07 09:17:13;;;;;;;6.03;4.83;;;;;;;;;;4888431;29;20416;-85
2024/04/07 09:19:39;;;;;;;5.57;4.90;;;;;;;;;;4892342;29;20394;-86
2024/04/07 09:22:08;;;;;;;5.47;5.17;;;;;;;;;;4897771;29;20427;-85
2024/04/07 09:24:35;;;;;;;5.07;4.70;;;;;;;;;;4893094;29;20423;-84
2024/04/07 09:27:12;;;;;;;5.37;5.07;;;;;;;;;;4896149;29;20479;-87
2024/04/07 09:29:39;;;;;;;4.77;4.50;;;;;;;;;;4891833;29;20668;-85
2024/04/07 09:32:05;;;;;;;4.80;4.50;;;;;;;;;;4898645;29;20415;-84
2024/04/07 09:34:35;;;;;;;4.73;4.43;;;;;;;;;;4897315;29;20500;-86
2024/04/07 09:37:01;;;;;;;5.10;4.70;;;;;;;;;;4898355;29;20459;-86
2024/04/07 09:39:27;;;;;;;4.67;4.37;;;;;;;;;;4890656;29;20431;-84
2024/04/07 09:41:54;;;;;;;5.10;4.30;;;;;;;;;;4880213;29;20901;-86
2024/04/07 09:44:21;;;;;;;5.30;5.00;;;;;;;;;;4888639;29;20510;-84
2024/04/07 09:46:47;;;;;;;5.80;5.30;;;;;;;;;;4898224;29;20498;-86
2024/04/07 09:49:14;;;;;;;5.80;5.40;;;;;;;;;;4897590;29;20776;-86
2024/04/07 09:51:44;;;;;;;5.50;5.20;;;;;;;;;;4897858;29;20423;-87
2024/04/07 09:54:13;;;;;;;5.20;4.90;;;;;;;;;;4898147;29;20481;-87
2024/04/07 09:56:39;;;;;;;5.70;5.40;;;;;;;;;;4897988;29;20405;-87
2024/04/07 09:59:05;;;;;;;5.60;5.30;;;;;;;;;;4896464;29;20416;-87
2024/04/07 10:01:31;;;;;;;5.30;4.90;;;;;;;;;;4880014;29;20435;-87
2024/04/07 10:03:57;;;;;;;4.67;4.37;;;;;;;;;;4881789;29;20442;-88
2024/04/07 10:06:23;;;;;;;5.27;4.83;;;;;;;;;;4899039;29;20474;-88
2024/04/07 10:08:49;;;;;;;5.00;4.23;;;;;;;;;;4897987;29;20416;-87
2024/04/07 10:11:19;;;;;;;4.80;4.40;;;;;;;;;;4898636;29;20401;-88
2024/04/07 10:13:45;;;;;;;5.77;5.27;;;;;;;;;;4898374;29;20409;-88
2024/04/07 10:16:13;;;;;;;5.97;5.60;;;;;;;;;;4881290;29;20514;-88
2024/04/07 10:18:41;;;;;;;6.13;5.80;;;;;;;;;;4898344;29;20407;-86
2024/04/07 10:21:08;;;;;;;5.97;5.57;;;;;;;;;;4900008;29;20411;-88
2024/04/07 10:23:38;;;;;;;5.00;4.60;;;;;;;;;;4901671;29;20489;-88
2024/04/07 10:26:05;;;;;;;5.63;5.33;;;;;;;;;;4901894;29;20449;-88
2024/04/07 10:28:48;;;;;;;5.90;5.40;;;;;;;;;;4901934;29;20469;-88
2024/04/07 10:31:23;;;;;;;5.90;5.50;;;;;;;;;;4902006;29;20434;-88
2024/04/07 10:33:53;;;;;;;5.73;5.33;;;;;;;;;;4890844;29;20452;-89
2024/04/07 10:36:23;;;;;;;5.43;5.20;;;;;;;;;;4901764;29;20397;-89
2024/04/07 10:38:51;;;;;;;6.50;5.90;;;;;;;;;;4902170;29;20426;-88
2024/04/07 10:41:19;;;;;;;7.80;7.10;;;;;;;;;;4901348;29;20426;-87
2024/04/07 10:43:45;;;;;;;6.63;6.03;;;;;;;;;;4901771;29;20435;-89
2024/04/07 10:46:11;;;;;;;7.60;6.90;;;;;;;;;;4901470;29;20554;-87
2024/04/07 10:48:37;;;;;;;8.77;7.97;;;;;;;;;;4900862;29;20434;-88
2024/04/07 10:51:04;;;;;;;7.43;6.93;;;;;;;;;;4901045;29;20407;-89
2024/04/07 10:53:30;;;;;;;7.40;6.77;;;;;;;;;;4901321;29;20411;-88
2024/04/07 10:55:56;;;;;;;6.50;6.00;;;;;;;;;;4884575;29;20435;-89
2024/04/07 10:58:22;;;;;;;12.27;11.00;;;;;;;;;;4901004;29;20503;-89
2024/04/07 11:00:48;;;;;;;8.17;7.47;;;;;;;;;;4901202;29;20423;-89
2024/04/07 11:03:14;;;;;;;5.90;5.30;;;;;;;;;;4900837;29;20505;-87
2024/04/07 11:05:40;;;;;;;7.70;7.13;;;;;;;;;;4883667;29;20504;-90
2024/04/07 11:08:06;;;;;;;10.23;9.37;;;;;;;;;;4900661;29;20411;-87
2024/04/07 11:10:38;;;;;;;8.63;7.90;;;;;;;;;;4900982;29;20446;-90
2024/04/07 11:13:06;;;;;;;6.40;5.90;;;;;;;;;;4901131;29;20447;-89
2024/04/07 11:15:32;;;;;;;6.83;5.77;;;;;;;;;;4886007;29;20474;-88
2024/04/07 11:17:59;;;;;;;6.87;6.33;;;;;;;;;;4881983;29;20927;-90
2024/04/07 11:20:25;;;;;;;6.20;5.83;;;;;;;;;;4882337;29;20412;-91
2024/04/07 11:22:51;;;;;;;6.43;6.03;;;;;;;;;;4880850;29;20515;-88
2024/04/07 11:25:17;;;;;;;6.40;6.00;;;;;;;;;;4882236;29;20467;-89
2024/04/07 11:27:43;;;;;;;5.70;5.40;;;;;;;;;;4882369;29;20767;-89
2024/04/07 11:30:10;;;;;;;5.63;5.30;;;;;;;;;;4882166;29;20480;-90
2024/04/07 11:32:39;;;;;;;6.73;6.30;;;;;;;;;;4881858;29;20428;-88
2024/04/07 11:35:05;;;;;;;5.83;5.43;;;;;;;;;;4886877;29;20905;-88
2024/04/07 11:37:31;;;;;;;5.53;5.33;;;;;;;;;;4882650;29;20505;-89
2024/04/07 11:39:57;;;;;;;6.03;5.73;;;;;;;;;;4896248;29;20419;-89
2024/04/07 11:42:25;;;;;;;6.30;5.70;;;;;;;;;;4891736;29;20903;-89
2024/04/07 11:44:51;;;;;;;5.33;5.13;;;;;;;;;;4881285;29;20752;-89
2024/04/07 11:47:17;;;;;;;5.57;5.27;;;;;;;;;;4881411;29;20556;-88
2024/04/07 11:49:45;;;;;;;6.40;6.00;;;;;;;;;;4880150;29;20812;-91
2024/04/07 11:52:11;;;;;;;6.13;5.67;;;;;;;;;;4887599;29;20419;-93
2024/04/07 11:54:37;;;;;;;6.50;5.90;;;;;;;;;;4900671;29;20426;-91
2024/04/07 11:57:03;;;;;;;6.30;6.00;;;;;;;;;;4900522;29;20415;-90
2024/04/07 11:59:29;;;;;;;5.70;5.40;;;;;;;;;;4900426;29;20904;-91
2024/04/07 12:01:55;;;;;;;6.20;5.70;;;;;;;;;;4900292;29;20420;-91
2024/04/07 12:04:21;;;;;;;5.90;5.40;;;;;;;;;;4883292;29;20435;-89
2024/04/07 12:06:48;;;;;;;5.00;4.80;;;;;;;;;;4883040;29;20523;-93
2024/04/07 12:09:14;;;;;;;5.30;5.10;;;;;;;;;;4899732;29;20971;-89
2024/04/07 12:11:40;;;;;;;5.57;5.20;;;;;;;;;;4899757;29;20501;-85
2024/04/07 12:14:06;;;;;;;5.30;5.00;;;;;;;;;;4900826;29;20758;-91
2024/04/07 12:16:32;;;;;;;5.27;4.97;;;;;;;;;;4902830;29;20423;-86
2024/04/07 12:18:58;;;;;;;5.13;4.87;;;;;;;;;;4899687;29;20931;-87
2024/04/07 12:21:24;;;;;;;5.47;5.10;;;;;;;;;;4899552;29;20415;-88
2024/04/07 12:23:50;;;;;;;5.67;5.37;;;;;;;;;;4899479;29;20785;-87
2024/04/07 12:26:16;;;;;;;5.70;5.30;;;;;;;;;;4898989;29;20625;-83
2024/04/07 12:28:42;;;;;;;5.63;5.33;;;;;;;;;;4898509;29;20407;-85
2024/04/07 12:31:09;;;;;;;5.80;5.50;;;;;;;;;;4898868;29;20471;-86
2024/04/07 12:33:35;;;;;;;5.00;4.80;;;;;;;;;;4898365;29;20419;-88
2024/04/07 12:36:01;;;;;;;5.63;5.33;;;;;;;;;;4882534;29;20557;-86
2024/04/07 12:38:27;;;;;;;6.03;5.73;;;;;;;;;;4898544;29;20900;-89
2024/04/07 12:40:55;;;;;;;5.43;5.03;;;;;;;;;;4899531;29;20458;-89
2024/04/07 12:43:21;;;;;;;5.90;5.40;;;;;;;;;;4882005;29;20944;-88
2024/04/07 12:45:47;;;;;;;6.10;5.80;;;;;;;;;;4898656;29;20530;-86
2024/04/07 12:48:19;;;;;;;5.67;5.37;;;;;;;;;;4899483;29;20411;-88
2024/04/07 12:50:45;;;;;;;5.50;5.10;;;;;;;;;;4898871;29;20385;-86
2024/04/07 12:53:11;;;;;;;5.93;5.63;;;;;;;;;;4882258;29;20444;-88
2024/04/07 12:55:38;;;;;;;5.90;5.60;;;;;;;;;;4898745;29;20419;-89
2024/04/07 12:58:04;;;;;;;5.93;5.63;;;;;;;;;;4898766;29;20423;-86
2024/04/07 13:00:30;;;;;;;5.90;5.50;;;;;;;;;;4897030;29;20415;-86
2024/04/07 13:02:56;;;;;;;6.30;5.80;;;;;;;;;;4897727;29;20423;-87
2024/04/07 13:05:22;;;;;;;5.93;5.53;;;;;;;;;;4898288;29;20515;-87
2024/04/07 13:07:48;;;;;;;6.10;5.70;;;;;;;;;;4881314;29;20848;-88
2024/04/07 13:10:17;;;;;;;6.30;5.90;;;;;;;;;;4898253;29;20839;-88
2024/04/07 13:12:42;;;;;;;6.37;5.90;;;;;;;;;;4897878;29;20550;-84
2024/04/07 13:15:09;;;;;;;7.67;6.00;;;;;;;;;;4879941;29;20428;-91
2024/04/07 13:17:35;;;;;;;7.13;5.63;;;;;;;;;;4879688;29;20420;-86
2024/04/07 13:20:01;;;;;;;6.60;6.10;;;;;;;;;;4897468;29;20426;-88
2024/04/07 13:22:27;;;;;;;6.70;6.00;;;;;;;;;;4898092;29;20415;-89
2024/04/07 13:24:53;;;;;;;7.73;6.47;;;;;;;;;;4896446;29;20920;-87
2024/04/07 13:27:20;;;;;;;6.77;6.37;;;;;;;;;;4899193;29;20574;-86
2024/04/07 13:29:45;;;;;;;6.97;6.57;;;;;;;;;;4897778;29;20478;-86
2024/04/07 13:32:11;;;;;;;8.57;7.07;;;;;;;;;;4898095;29;20411;-89
2024/04/07 13:34:37;;;;;;;7.20;6.70;;;;;;;;;;4881886;29;20424;-90
2024/04/07 13:37:03;;;;;;;7.37;6.77;;;;;;;;;;4879443;29;20459;-88
2024/04/07 13:39:29;;;;;;;7.77;6.43;;;;;;;;;;4879353;29;20424;-90
2024/04/07 13:41:55;;;;;;;6.50;5.97;;;;;;;;;;4879155;29;20476;-88
2024/04/07 13:44:22;;;;;;;7.33;6.10;;;;;;;;;;4879046;29;20424;-91
2024/04/07 13:46:52;;;;;;;6.50;5.03;;;;;;;;;;4883995;29;20522;-88
2024/04/07 13:49:18;;;;;;;6.10;5.60;;;;;;;;;;4888895;29;20435;-91
2024/04/07 13:51:44;;;;;;;6.73;5.43;;;;;;;;;;4878989;29;20412;-89
2024/04/07 13:54:10;;;;;;;6.97;6.57;;;;;;;;;;4879277;29;20428;-89
2024/04/07 13:56:36;;;;;;;6.63;5.93;;;;;;;;;;4899796;29;20777;-91
2024/04/07 13:59:02;;;;;;;5.73;5.23;;;;;;;;;;4901830;29;20427;-87
2024/04/07 14:01:28;;;;;;;7.10;6.40;;;;;;;;;;4901922;29;20749;-90
2024/04/07 14:03:54;;;;;;;10.60;6.67;;;;;;;;;;4903626;29;20468;-89
2024/04/07 14:06:20;;;;;;;7.43;6.73;;;;;;;;;;4884415;29;20979;-89
2024/04/07 14:08:46;;;;;;;9.63;8.27;;;;;;;;;;4901914;29;20490;-86
2024/04/07 14:11:12;;;;;;;8.13;6.60;;;;;;;;;;4902456;29;20517;-86
2024/04/07 14:13:38;;;;;;;7.50;6.90;;;;;;;;;;4899883;29;20415;-89
2024/04/07 14:16:04;;;;;;;9.80;6.40;;;;;;;;;;4901641;29;20415;-89
2024/04/07 14:18:30;;;;;;;6.60;6.10;;;;;;;;;;4891305;29;20458;-86
2024/04/07 14:20:56;;;;;;;6.53;6.07;;;;;;;;;;4901082;29;20927;-88
2024/04/07 14:23:22;;;;;;;10.67;6.77;;;;;;;;;;4901219;29;20715;-85
2024/04/07 14:25:48;;;;;;;6.23;5.50;;;;;;;;;;4900961;29;20478;-89
2024/04/07 14:28:14;;;;;;;6.57;5.80;;;;;;;;;;4900852;29;20415;-90
2024/04/07 14:30:40;;;;;;;9.27;7.10;;;;;;;;;;4900390;29;20610;-88
2024/04/07 14:33:06;;;;;;;7.00;6.10;;;;;;;;;;4899132;29;20931;-90
2024/04/07 14:35:32;;;;;;;5.20;4.80;;;;;;;;;;4888151;29;20775;-90
2024/04/07 14:37:58;;;;;;;6.90;4.57;;;;;;;;;;4900598;29;20419;-90
2024/04/07 14:40:24;;;;;;;5.77;4.73;;;;;;;;;;4883808;29;20426;-89